Time;durP1;ratioP1;P1;durP2;ratioP2;P2;SDS_P1;SDS_P2;PMS_P1;PMS_P2;Temp;Humidity;BMP_temperature;BMP_pressure;BME280_temperature;BME280_humidity;BME280_pressure;Samples;Min_cycle;Max_cycle;Signal;HPM_P1;HPM_P2
2021/04/20 00:01:24;;;;;;;9.00;4.70;;;;;;;;;;5043081;28;20757;-71
2021/04/20 00:03:53;;;;;;;9.67;5.50;;;;;;;;;;5043257;28;20462;-72
2021/04/20 00:06:21;;;;;;;8.90;4.13;;;;;;;;;;5042417;28;20875;-72
2021/04/20 00:08:49;;;;;;;8.77;4.53;;;;;;;;;;5041658;28;20890;-71
2021/04/20 00:11:16;;;;;;;8.17;4.80;;;;;;;;;;5043905;28;20516;-71
2021/04/20 00:13:43;;;;;;;10.17;4.30;;;;;;;;;;5042380;28;20882;-71
2021/04/20 00:16:10;;;;;;;7.23;5.03;;;;;;;;;;5042432;28;20458;-71
2021/04/20 00:18:39;;;;;;;10.50;5.13;;;;;;;;;;5042905;28;20496;-71
2021/04/20 00:21:06;;;;;;;17.60;5.90;;;;;;;;;;5042157;28;20902;-72
2021/04/20 00:23:33;;;;;;;14.30;4.73;;;;;;;;;;5042715;28;20482;-72
2021/04/20 00:26:00;;;;;;;8.70;4.70;;;;;;;;;;5042036;28;20929;-72
2021/04/20 00:28:28;;;;;;;9.47;4.97;;;;;;;;;;5043282;28;20450;-71
2021/04/20 00:30:56;;;;;;;7.97;4.77;;;;;;;;;;5043359;28;20958;-71
2021/04/20 00:33:25;;;;;;;7.33;3.80;;;;;;;;;;5042187;28;20889;-72
2021/04/20 00:35:53;;;;;;;9.67;6.87;;;;;;;;;;5042488;28;20454;-71
2021/04/20 00:38:21;;;;;;;8.03;4.30;;;;;;;;;;5042295;28;20458;-71
2021/04/20 00:40:49;;;;;;;11.97;4.73;;;;;;;;;;5043137;28;20547;-71
2021/04/20 00:43:17;;;;;;;10.80;5.03;;;;;;;;;;5042403;28;20469;-71
2021/04/20 00:45:46;;;;;;;10.60;4.70;;;;;;;;;;5042643;28;20490;-71
2021/04/20 00:48:14;;;;;;;6.00;4.07;;;;;;;;;;5042981;28;20447;-71
2021/04/20 00:50:42;;;;;;;10.87;5.43;;;;;;;;;;5042484;28;20493;-72
2021/04/20 00:53:11;;;;;;;5.67;3.60;;;;;;;;;;5042777;28;20450;-71
2021/04/20 00:55:39;;;;;;;9.70;4.63;;;;;;;;;;5042835;28;20703;-71
2021/04/20 00:58:07;;;;;;;9.50;4.30;;;;;;;;;;5041384;28;20454;-71
2021/04/20 01:00:34;;;;;;;8.90;4.70;;;;;;;;;;5042144;28;20462;-71
2021/04/20 01:03:02;;;;;;;14.37;4.50;;;;;;;;;;5041981;28;20473;-71
2021/04/20 01:05:32;;;;;;;9.80;5.03;;;;;;;;;;5042243;28;20522;-72
2021/04/20 01:08:02;;;;;;;11.03;4.50;;;;;;;;;;5041188;28;20451;-71
2021/04/20 01:10:30;;;;;;;8.67;4.90;;;;;;;;;;5038331;28;20465;-71
2021/04/20 01:12:58;;;;;;;6.60;4.03;;;;;;;;;;5038808;28;20627;-72
2021/04/20 01:15:26;;;;;;;9.57;4.30;;;;;;;;;;5035558;28;20447;-71
2021/04/20 01:18:15;;;;;;;8.00;4.57;;;;;;;;;;5038231;28;20537;-71
2021/04/20 01:20:48;;;;;;;9.00;5.00;;;;;;;;;;5031578;28;20459;-71
2021/04/20 01:23:17;;;;;;;8.13;4.77;;;;;;;;;;5038583;28;20544;-72
2021/04/20 01:25:46;;;;;;;8.20;5.70;;;;;;;;;;5036805;28;20511;-71
2021/04/20 01:28:14;;;;;;;11.43;5.90;;;;;;;;;;5038501;28;20972;-71
2021/04/20 01:30:43;;;;;;;10.57;6.27;;;;;;;;;;5038377;28;20454;-71
2021/04/20 01:33:15;;;;;;;11.33;4.70;;;;;;;;;;5038532;28;20486;-70
2021/04/20 01:35:42;;;;;;;10.60;5.87;;;;;;;;;;5037140;28;20911;-71
2021/04/20 01:38:10;;;;;;;11.77;5.70;;;;;;;;;;5037288;28;20459;-71
2021/04/20 01:40:37;;;;;;;6.23;5.40;;;;;;;;;;5037027;28;20891;-71
2021/04/20 01:43:06;;;;;;;9.67;5.97;;;;;;;;;;5036667;28;20801;-71
2021/04/20 01:45:34;;;;;;;11.13;6.90;;;;;;;;;;5036370;28;20521;-71
2021/04/20 01:48:02;;;;;;;13.00;6.33;;;;;;;;;;5036577;28;20458;-71
2021/04/20 01:50:30;;;;;;;14.63;6.70;;;;;;;;;;5036552;28;20463;-71
2021/04/20 01:53:06;;;;;;;12.47;6.60;;;;;;;;;;5038926;28;20451;-70
2021/04/20 01:55:33;;;;;;;10.90;6.07;;;;;;;;;;5036783;28;20458;-71
2021/04/20 01:58:01;;;;;;;10.03;6.83;;;;;;;;;;5036353;28;20471;-71
2021/04/20 02:00:31;;;;;;;13.63;7.27;;;;;;;;;;5038483;28;20534;-71
2021/04/20 02:02:59;;;;;;;10.60;6.20;;;;;;;;;;5038104;28;20599;-71
2021/04/20 02:05:26;;;;;;;14.93;7.27;;;;;;;;;;5037071;28;20507;-70
2021/04/20 02:07:54;;;;;;;9.87;6.60;;;;;;;;;;5035690;28;20467;-71
2021/04/20 02:10:21;;;;;;;13.47;6.97;;;;;;;;;;5037900;28;20455;-71
2021/04/20 02:12:48;;;;;;;9.80;5.80;;;;;;;;;;5036624;28;20558;-71
2021/04/20 02:15:17;;;;;;;14.03;7.80;;;;;;;;;;5037379;28;20443;-71
2021/04/20 02:17:46;;;;;;;14.87;6.50;;;;;;;;;;5037091;28;20516;-71
2021/04/20 02:20:14;;;;;;;11.30;7.47;;;;;;;;;;5037359;28;20474;-71
2021/04/20 02:22:47;;;;;;;12.67;7.40;;;;;;;;;;5037055;28;20459;-71
2021/04/20 02:25:22;;;;;;;13.13;7.00;;;;;;;;;;5033530;28;20791;-71
2021/04/20 02:28:03;;;;;;;18.27;9.30;;;;;;;;;;5038397;28;20462;-71
2021/04/20 02:30:32;;;;;;;10.77;7.23;;;;;;;;;;5036845;28;20750;-71
2021/04/20 02:33:00;;;;;;;22.70;9.03;;;;;;;;;;5036487;28;20451;-70
2021/04/20 02:35:31;;;;;;;16.73;7.67;;;;;;;;;;5037327;28;20459;-71
2021/04/20 02:37:58;;;;;;;13.37;7.50;;;;;;;;;;5036638;28;20447;-70
2021/04/20 02:40:27;;;;;;;12.57;8.03;;;;;;;;;;5037481;28;20482;-71
2021/04/20 02:42:55;;;;;;;15.13;8.43;;;;;;;;;;5037896;28;20482;-70
2021/04/20 02:45:22;;;;;;;18.83;8.73;;;;;;;;;;5036675;28;20548;-70
2021/04/20 02:47:50;;;;;;;17.93;10.43;;;;;;;;;;5036553;28;20518;-71
2021/04/20 02:50:20;;;;;;;12.20;7.13;;;;;;;;;;5036262;28;20467;-70
2021/04/20 02:52:48;;;;;;;13.60;7.70;;;;;;;;;;5034194;28;20879;-71
2021/04/20 02:55:17;;;;;;;12.87;8.50;;;;;;;;;;5037593;28;20455;-70
2021/04/20 02:57:46;;;;;;;13.00;7.87;;;;;;;;;;5034379;28;20453;-70
2021/04/20 03:00:14;;;;;;;12.40;7.57;;;;;;;;;;5037406;28;20459;-70
2021/04/20 03:02:42;;;;;;;16.47;8.60;;;;;;;;;;5037634;28;20796;-70
2021/04/20 03:05:11;;;;;;;16.97;9.37;;;;;;;;;;5036888;28;20513;-71
2021/04/20 03:07:39;;;;;;;14.57;7.87;;;;;;;;;;5037499;28;20494;-71
2021/04/20 03:10:07;;;;;;;18.83;7.63;;;;;;;;;;5018418;28;20535;-71
2021/04/20 03:12:36;;;;;;;14.67;8.97;;;;;;;;;;5037411;28;20974;-71
2021/04/20 03:15:04;;;;;;;16.73;8.90;;;;;;;;;;5036537;28;20533;-70
2021/04/20 03:17:31;;;;;;;21.77;8.87;;;;;;;;;;5033796;28;20462;-71
2021/04/20 03:19:58;;;;;;;13.93;7.07;;;;;;;;;;5036917;28;20446;-71
2021/04/20 03:22:31;;;;;;;20.20;9.10;;;;;;;;;;5036280;28;20550;-71
2021/04/20 03:25:18;;;;;;;14.80;7.83;;;;;;;;;;5019125;28;20793;-70
2021/04/20 03:27:48;;;;;;;28.03;8.70;;;;;;;;;;5027065;28;20522;-71
2021/04/20 03:30:20;;;;;;;15.17;8.07;;;;;;;;;;5037127;28;20462;-71
2021/04/20 03:32:52;;;;;;;20.60;8.73;;;;;;;;;;5030147;28;20894;-71
2021/04/20 03:35:25;;;;;;;12.53;8.13;;;;;;;;;;5036753;28;20885;-71
2021/04/20 03:38:05;;;;;;;16.57;8.90;;;;;;;;;;5033606;28;20951;-71
2021/04/20 03:40:48;;;;;;;26.93;9.07;;;;;;;;;;5017159;28;20616;-71
2021/04/20 03:43:21;;;;;;;21.77;8.43;;;;;;;;;;5017018;28;20474;-71
2021/04/20 03:45:56;;;;;;;18.00;9.20;;;;;;;;;;5017372;28;20484;-72
2021/04/20 03:48:28;;;;;;;13.43;7.70;;;;;;;;;;5029905;28;20871;-71
2021/04/20 03:50:58;;;;;;;16.23;9.27;;;;;;;;;;5026148;28;20718;-72
2021/04/20 03:53:25;;;;;;;15.60;8.27;;;;;;;;;;5036619;28;20537;-70
2021/04/20 03:55:58;;;;;;;17.03;9.20;;;;;;;;;;5036651;28;20446;-71
2021/04/20 03:58:27;;;;;;;17.17;9.57;;;;;;;;;;5036819;28;20442;-71
2021/04/20 04:01:09;;;;;;;13.27;9.53;;;;;;;;;;5036613;28;21002;-71
2021/04/20 04:03:37;;;;;;;19.43;8.60;;;;;;;;;;5036202;28;20723;-71
2021/04/20 04:06:05;;;;;;;19.77;10.23;;;;;;;;;;5036421;28;20839;-71
2021/04/20 04:08:40;;;;;;;16.30;8.90;;;;;;;;;;5031800;28;20578;-71
2021/04/20 04:11:15;;;;;;;15.17;9.13;;;;;;;;;;5036295;28;20450;-73
2021/04/20 04:13:43;;;;;;;15.33;8.80;;;;;;;;;;5031395;28;21090;-71
2021/04/20 04:16:12;;;;;;;14.67;10.10;;;;;;;;;;5016416;28;20539;-71
2021/04/20 04:18:43;;;;;;;18.43;10.30;;;;;;;;;;5016410;28;20450;-71
2021/04/20 04:21:10;;;;;;;21.37;10.73;;;;;;;;;;5016208;28;20479;-71
2021/04/20 04:23:44;;;;;;;22.67;10.50;;;;;;;;;;5034649;28;20482;-71
2021/04/20 04:26:16;;;;;;;25.03;10.20;;;;;;;;;;5037081;28;20493;-71
2021/04/20 04:28:46;;;;;;;21.23;9.53;;;;;;;;;;5035502;28;20459;-71
2021/04/20 04:31:18;;;;;;;17.23;10.10;;;;;;;;;;5036495;28;20446;-72
2021/04/20 04:33:47;;;;;;;17.90;10.03;;;;;;;;;;5035491;28;20565;-71
2021/04/20 04:36:16;;;;;;;18.07;10.27;;;;;;;;;;5035897;28;20450;-71
2021/04/20 04:38:47;;;;;;;18.43;11.80;;;;;;;;;;5036803;28;20521;-71
2021/04/20 04:41:19;;;;;;;20.53;11.60;;;;;;;;;;5036070;28;20630;-71
2021/04/20 04:43:47;;;;;;;19.10;11.07;;;;;;;;;;5037270;28;20473;-71
2021/04/20 04:46:16;;;;;;;21.10;10.90;;;;;;;;;;5038788;28;20556;-71
2021/04/20 04:48:44;;;;;;;19.10;11.20;;;;;;;;;;5040260;28;20489;-71
2021/04/20 04:51:12;;;;;;;15.73;9.60;;;;;;;;;;5040223;28;20464;-71
2021/04/20 04:53:40;;;;;;;24.70;11.73;;;;;;;;;;5039115;28;20465;-71
2021/04/20 04:56:09;;;;;;;18.30;11.70;;;;;;;;;;5037286;28;20442;-71
2021/04/20 04:58:39;;;;;;;20.50;11.47;;;;;;;;;;5019819;28;20491;-71
2021/04/20 05:01:07;;;;;;;18.67;9.43;;;;;;;;;;5019200;28;20882;-71
2021/04/20 05:03:50;;;;;;;15.67;11.00;;;;;;;;;;5020213;28;20722;-71
2021/04/20 05:06:38;;;;;;;18.13;11.40;;;;;;;;;;5037680;28;20938;-71
2021/04/20 05:09:10;;;;;;;21.43;14.10;;;;;;;;;;5038251;28;20471;-71
2021/04/20 05:11:41;;;;;;;20.10;13.30;;;;;;;;;;5039844;28;20471;-71
2021/04/20 05:14:13;;;;;;;24.33;12.40;;;;;;;;;;5038652;28;20497;-71
2021/04/20 05:16:44;;;;;;;21.80;10.70;;;;;;;;;;5037570;28;20447;-71
2021/04/20 05:19:14;;;;;;;18.40;11.57;;;;;;;;;;5023335;28;20471;-71
2021/04/20 05:21:56;;;;;;;20.47;10.33;;;;;;;;;;5018877;28;20879;-71
2021/04/20 05:24:29;;;;;;;14.93;10.20;;;;;;;;;;5018289;28;20455;-72
2021/04/20 05:27:09;;;;;;;19.53;11.57;;;;;;;;;;5033967;28;20721;-71
2021/04/20 05:29:43;;;;;;;15.40;9.13;;;;;;;;;;5038016;28;20478;-71
2021/04/20 05:32:13;;;;;;;16.40;10.00;;;;;;;;;;5019705;28;20463;-71
2021/04/20 05:34:44;;;;;;;18.63;10.90;;;;;;;;;;5017719;28;20460;-71
2021/04/20 05:37:24;;;;;;;21.93;10.43;;;;;;;;;;5017594;28;20462;-71
2021/04/20 05:42:41;;;;;;;18.60;10.70;;;;;;;;;;5010175;28;20428;-71
2021/04/20 05:45:11;;;;;;;19.83;11.03;;;;;;;;;;5019624;28;20671;-71
2021/04/20 05:47:39;;;;;;;15.30;9.70;;;;;;;;;;5016976;28;20606;-71
2021/04/20 05:50:07;;;;;;;18.57;11.23;;;;;;;;;;5023016;28;20467;-71
2021/04/20 05:52:35;;;;;;;24.07;11.33;;;;;;;;;;5022820;28;20528;-71
2021/04/20 05:55:02;;;;;;;17.93;9.27;;;;;;;;;;5015489;28;20494;-70
2021/04/20 05:57:29;;;;;;;21.17;9.40;;;;;;;;;;5018151;28;20494;-71
2021/04/20 05:59:57;;;;;;;14.37;8.00;;;;;;;;;;5036524;28;20455;-70
2021/04/20 06:02:26;;;;;;;22.30;9.40;;;;;;;;;;5035851;28;20924;-70
2021/04/20 06:04:57;;;;;;;18.50;9.70;;;;;;;;;;5033801;28;20880;-71
2021/04/20 06:07:25;;;;;;;13.83;9.30;;;;;;;;;;5036678;28;20457;-70
2021/04/20 06:09:52;;;;;;;17.27;9.47;;;;;;;;;;5035970;28;20471;-70
2021/04/20 06:12:23;;;;;;;15.27;7.70;;;;;;;;;;5035738;28;20895;-70
2021/04/20 06:14:50;;;;;;;11.30;8.40;;;;;;;;;;5035914;28;20447;-70
2021/04/20 06:17:18;;;;;;;15.00;10.63;;;;;;;;;;5034212;28;20459;-70
2021/04/20 06:19:47;;;;;;;13.60;9.53;;;;;;;;;;5035109;28;20521;-70
2021/04/20 06:22:16;;;;;;;13.40;9.00;;;;;;;;;;5035658;28;20534;-71
2021/04/20 06:24:44;;;;;;;15.70;9.60;;;;;;;;;;5036864;28;21103;-71
2021/04/20 06:27:13;;;;;;;15.00;8.57;;;;;;;;;;5035276;28;20463;-70
2021/04/20 06:29:40;;;;;;;16.27;8.97;;;;;;;;;;5037108;28;20458;-70
2021/04/20 06:32:11;;;;;;;11.40;7.50;;;;;;;;;;5036671;28;20540;-70
2021/04/20 06:34:39;;;;;;;16.33;9.50;;;;;;;;;;5036743;28;20475;-70
2021/04/20 06:37:08;;;;;;;10.30;8.07;;;;;;;;;;5036891;28;20478;-69
2021/04/20 06:39:39;;;;;;;13.53;8.37;;;;;;;;;;5036662;28;20565;-69
2021/04/20 06:42:09;;;;;;;18.90;9.10;;;;;;;;;;5037025;28;20455;-69
2021/04/20 06:44:41;;;;;;;10.70;7.60;;;;;;;;;;5036082;28;20447;-70
2021/04/20 06:47:14;;;;;;;17.63;8.83;;;;;;;;;;5034040;28;21010;-70
2021/04/20 06:49:44;;;;;;;16.30;9.20;;;;;;;;;;5016400;28;20758;-70
2021/04/20 06:52:16;;;;;;;14.77;8.10;;;;;;;;;;5032647;28;20520;-70
2021/04/20 06:54:49;;;;;;;22.13;10.93;;;;;;;;;;5035670;28;20465;-70
2021/04/20 06:57:18;;;;;;;21.40;8.87;;;;;;;;;;5035910;28;20450;-70
2021/04/20 06:59:56;;;;;;;12.87;8.40;;;;;;;;;;5032736;28;20528;-70
2021/04/20 07:02:34;;;;;;;14.00;7.50;;;;;;;;;;5036148;28;20454;-70
2021/04/20 07:05:02;;;;;;;12.17;8.77;;;;;;;;;;5035673;28;20458;-70
2021/04/20 07:07:51;;;;;;;11.83;7.30;;;;;;;;;;5034855;28;20867;-70
2021/04/20 07:10:22;;;;;;;17.60;7.10;;;;;;;;;;5035210;28;20926;-71
2021/04/20 07:12:50;;;;;;;15.87;6.67;;;;;;;;;;5034974;28;20447;-70
2021/04/20 07:15:20;;;;;;;10.17;6.53;;;;;;;;;;5035461;28;20560;-70
2021/04/20 07:17:59;;;;;;;14.20;6.67;;;;;;;;;;5036524;28;20486;-70
2021/04/20 07:20:32;;;;;;;15.43;6.47;;;;;;;;;;5035291;28;20451;-71
2021/04/20 07:23:15;;;;;;;9.40;6.80;;;;;;;;;;5035686;28;20455;-70
2021/04/20 07:25:59;;;;;;;10.43;5.17;;;;;;;;;;5036313;28;20483;-72
2021/04/20 07:28:51;;;;;;;10.77;6.20;;;;;;;;;;5035908;28;20553;-70
2021/04/20 07:31:28;;;;;;;10.17;6.20;;;;;;;;;;5036065;28;20458;-71
2021/04/20 07:34:01;;;;;;;10.07;6.13;;;;;;;;;;5035283;28;20654;-70
2021/04/20 07:36:34;;;;;;;8.97;6.23;;;;;;;;;;5036022;28;20739;-70
2021/04/20 07:39:04;;;;;;;10.43;5.00;;;;;;;;;;5034397;28;20549;-70
2021/04/20 07:41:38;;;;;;;9.90;5.63;;;;;;;;;;5034569;28;21014;-70
2021/04/20 07:44:10;;;;;;;9.63;6.57;;;;;;;;;;5034950;28;20592;-70
2021/04/20 07:46:40;;;;;;;9.20;5.87;;;;;;;;;;5034273;28;20526;-70
2021/04/20 07:49:19;;;;;;;17.83;6.20;;;;;;;;;;5023150;28;21033;-71
2021/04/20 07:52:00;;;;;;;10.20;5.60;;;;;;;;;;5035364;28;21140;-72
2021/04/20 07:54:34;;;;;;;10.37;5.67;;;;;;;;;;5029769;28;20473;-71
2021/04/20 07:57:06;;;;;;;12.33;5.60;;;;;;;;;;5016747;28;20534;-70
2021/04/20 07:59:51;;;;;;;10.07;5.80;;;;;;;;;;5028975;28;20548;-70
2021/04/20 08:02:30;;;;;;;9.30;5.43;;;;;;;;;;5032589;28;20527;-70
2021/04/20 08:05:07;;;;;;;7.83;5.17;;;;;;;;;;5032065;28;20507;-71
2021/04/20 08:07:50;;;;;;;7.33;4.77;;;;;;;;;;5024451;28;20811;-70
2021/04/20 08:10:21;;;;;;;9.60;5.47;;;;;;;;;;5028853;28;20489;-71
2021/04/20 08:13:05;;;;;;;8.40;5.13;;;;;;;;;;5035746;28;20532;-71
2021/04/20 08:15:37;;;;;;;9.90;5.70;;;;;;;;;;5033652;28;20447;-71
2021/04/20 08:18:08;;;;;;;11.13;5.80;;;;;;;;;;5027307;28;21044;-70
2021/04/20 08:20:37;;;;;;;8.60;5.20;;;;;;;;;;5019793;28;20919;-69
2021/04/20 08:23:05;;;;;;;11.37;6.20;;;;;;;;;;5030948;28;20465;-70
2021/04/20 08:25:36;;;;;;;10.53;5.37;;;;;;;;;;5037494;28;20513;-70
2021/04/20 08:28:11;;;;;;;10.10;5.93;;;;;;;;;;5036882;28;20470;-70
2021/04/20 08:30:44;;;;;;;7.97;4.37;;;;;;;;;;5030141;28;20465;-72
2021/04/20 08:33:14;;;;;;;11.87;5.83;;;;;;;;;;5038249;28;20466;-72
2021/04/20 08:35:43;;;;;;;16.13;4.77;;;;;;;;;;5039519;28;20451;-70
2021/04/20 08:38:22;;;;;;;9.47;5.90;;;;;;;;;;5038415;28;20454;-70
2021/04/20 08:40:52;;;;;;;11.63;5.43;;;;;;;;;;5038648;28;20490;-70
2021/04/20 08:43:30;;;;;;;13.17;6.60;;;;;;;;;;5038801;28;20470;-70
2021/04/20 08:46:03;;;;;;;13.87;6.40;;;;;;;;;;5038284;28;20478;-70
2021/04/20 08:48:35;;;;;;;10.80;5.20;;;;;;;;;;5038844;28;20485;-70
2021/04/20 08:51:31;;;;;;;15.27;6.17;;;;;;;;;;5038778;28;20997;-71
2021/04/20 08:54:08;;;;;;;9.03;5.73;;;;;;;;;;5027563;28;20484;-70
2021/04/20 08:56:40;;;;;;;9.20;5.10;;;;;;;;;;5018211;28;20574;-70
2021/04/20 08:59:18;;;;;;;10.43;4.80;;;;;;;;;;5021348;28;20841;-69
2021/04/20 09:02:02;;;;;;;13.07;5.97;;;;;;;;;;5019751;28;20464;-70
2021/04/20 09:04:41;;;;;;;10.00;6.30;;;;;;;;;;5032891;28;20475;-69
2021/04/20 09:07:15;;;;;;;11.07;5.23;;;;;;;;;;5031041;28;20486;-70
2021/04/20 09:09:43;;;;;;;11.10;5.10;;;;;;;;;;5038707;28;20553;-70
2021/04/20 09:12:13;;;;;;;9.73;5.13;;;;;;;;;;5038251;28;20474;-70
2021/04/20 09:14:42;;;;;;;7.97;4.30;;;;;;;;;;5037704;28;20471;-70
2021/04/20 09:17:10;;;;;;;7.70;4.50;;;;;;;;;;5037702;28;20525;-70
2021/04/20 09:19:41;;;;;;;10.50;6.73;;;;;;;;;;5037360;28;20490;-70
2021/04/20 09:22:12;;;;;;;7.70;5.20;;;;;;;;;;5038275;28;20489;-70
2021/04/20 09:24:43;;;;;;;10.73;5.20;;;;;;;;;;5036296;28;20474;-70
2021/04/20 09:27:14;;;;;;;8.20;4.70;;;;;;;;;;5017978;28;20574;-70
2021/04/20 09:29:46;;;;;;;9.87;5.67;;;;;;;;;;5017584;28;20456;-70
2021/04/20 09:32:18;;;;;;;10.97;5.10;;;;;;;;;;5017977;28;20521;-70
2021/04/20 09:34:47;;;;;;;9.40;5.03;;;;;;;;;;5018751;28;20463;-70
2021/04/20 09:37:17;;;;;;;7.63;5.40;;;;;;;;;;5017799;28;21034;-71
2021/04/20 09:39:49;;;;;;;9.27;5.70;;;;;;;;;;5026841;28;20447;-71
2021/04/20 09:42:17;;;;;;;13.00;5.53;;;;;;;;;;5036601;28;20482;-71
2021/04/20 09:44:50;;;;;;;9.40;4.17;;;;;;;;;;5037311;28;20490;-70
2021/04/20 09:47:37;;;;;;;7.63;4.43;;;;;;;;;;5030824;28;20503;-70
2021/04/20 09:53:17;;;;;;;6.63;3.87;;;;;;;;;;5014378;28;20440;-70
2021/04/20 09:55:56;;;;;;;6.80;4.17;;;;;;;;;;5029378;28;20545;-71
2021/04/20 09:58:28;;;;;;;6.00;3.70;;;;;;;;;;5019912;28;20731;-70
2021/04/20 10:01:09;;;;;;;6.60;4.50;;;;;;;;;;5038039;28;20462;-70
2021/04/20 10:03:49;;;;;;;7.90;4.17;;;;;;;;;;5037246;28;20577;-71
2021/04/20 10:06:28;;;;;;;9.40;4.20;;;;;;;;;;5037542;28;20496;-71
2021/04/20 10:09:26;;;;;;;7.10;3.70;;;;;;;;;;5038012;28;20459;-72
2021/04/20 10:11:59;;;;;;;6.20;3.87;;;;;;;;;;5024473;28;20516;-71
2021/04/20 10:14:31;;;;;;;6.00;3.60;;;;;;;;;;5037386;28;20443;-71
2021/04/20 10:17:15;;;;;;;8.20;3.37;;;;;;;;;;5038840;28;20443;-71
2021/04/20 10:19:50;;;;;;;6.07;3.57;;;;;;;;;;5033226;28;21040;-71
2021/04/20 10:22:20;;;;;;;9.27;3.50;;;;;;;;;;5037844;28;20588;-71
2021/04/20 10:24:54;;;;;;;7.23;3.57;;;;;;;;;;5039564;28;20565;-73
2021/04/20 10:27:29;;;;;;;5.43;2.90;;;;;;;;;;5038881;28;20489;-72
2021/04/20 10:29:59;;;;;;;8.17;3.80;;;;;;;;;;5037363;28;20461;-70
2021/04/20 10:32:30;;;;;;;5.93;3.20;;;;;;;;;;5037408;28;20515;-73
2021/04/20 10:35:02;;;;;;;6.90;3.40;;;;;;;;;;5038202;28;20550;-71
2021/04/20 10:37:38;;;;;;;8.33;4.37;;;;;;;;;;5037288;28;20462;-71
2021/04/20 10:40:22;;;;;;;6.90;2.93;;;;;;;;;;5036725;28;20474;-71
2021/04/20 10:42:51;;;;;;;5.50;2.63;;;;;;;;;;5035822;28;20462;-71
2021/04/20 10:45:23;;;;;;;6.23;3.67;;;;;;;;;;5037301;28;20632;-71
2021/04/20 10:47:51;;;;;;;6.40;3.30;;;;;;;;;;5037739;28;20450;-71
2021/04/20 10:50:22;;;;;;;10.20;3.07;;;;;;;;;;5037873;28;21100;-71
2021/04/20 10:52:53;;;;;;;7.33;3.50;;;;;;;;;;5036703;28;20513;-70
2021/04/20 10:55:22;;;;;;;5.93;3.00;;;;;;;;;;5037013;28;20553;-71
2021/04/20 10:57:58;;;;;;;7.47;3.60;;;;;;;;;;5036954;28;20457;-72
2021/04/20 11:00:29;;;;;;;5.50;2.67;;;;;;;;;;5023743;28;20459;-71
2021/04/20 11:03:04;;;;;;;4.83;2.90;;;;;;;;;;5032798;28;20462;-72
2021/04/20 11:05:34;;;;;;;6.43;2.93;;;;;;;;;;5038631;28;20510;-71
2021/04/20 11:08:04;;;;;;;5.40;3.40;;;;;;;;;;5035238;28;20475;-71
2021/04/20 11:10:38;;;;;;;7.43;3.83;;;;;;;;;;5032273;28;20447;-71
2021/04/20 11:13:06;;;;;;;4.23;2.67;;;;;;;;;;5034030;28;20761;-71
2021/04/20 11:15:39;;;;;;;3.97;2.80;;;;;;;;;;5030782;28;20459;-71
2021/04/20 11:18:09;;;;;;;4.90;3.30;;;;;;;;;;5034657;28;20554;-71
2021/04/20 11:20:40;;;;;;;5.30;3.27;;;;;;;;;;5035941;28;20490;-70
2021/04/20 11:23:15;;;;;;;4.20;2.60;;;;;;;;;;5021768;28;21121;-71
2021/04/20 11:25:45;;;;;;;4.60;2.83;;;;;;;;;;5026688;28;20525;-71
2021/04/20 11:28:20;;;;;;;6.63;3.10;;;;;;;;;;5019220;28;20459;-71
2021/04/20 11:30:54;;;;;;;7.80;3.87;;;;;;;;;;5033122;28;20541;-71
2021/04/20 11:33:23;;;;;;;5.30;2.70;;;;;;;;;;5034800;28;20462;-71
2021/04/20 11:35:51;;;;;;;4.47;2.60;;;;;;;;;;5028004;28;20456;-70
2021/04/20 11:38:23;;;;;;;6.40;2.70;;;;;;;;;;5015088;28;21128;-71
2021/04/20 11:40:57;;;;;;;4.33;3.13;;;;;;;;;;5015201;28;20456;-70
2021/04/20 11:43:26;;;;;;;4.53;1.93;;;;;;;;;;5014724;28;20562;-72
2021/04/20 11:46:07;;;;;;;3.70;2.40;;;;;;;;;;5016465;28;20479;-72
2021/04/20 11:48:36;;;;;;;7.40;2.67;;;;;;;;;;5015419;28;20486;-70
2021/04/20 11:51:05;;;;;;;5.33;2.33;;;;;;;;;;5016850;28;20553;-71
2021/04/20 11:53:41;;;;;;;4.70;2.40;;;;;;;;;;5019198;28;20475;-71
2021/04/20 11:56:09;;;;;;;3.40;2.70;;;;;;;;;;5036156;28;20574;-70
2021/04/20 11:58:39;;;;;;;4.13;1.83;;;;;;;;;;5034857;28;20978;-73
2021/04/20 12:01:10;;;;;;;5.67;2.40;;;;;;;;;;5035387;28;20451;-72
2021/04/20 12:03:47;;;;;;;9.90;2.27;;;;;;;;;;5034209;28;20469;-72
2021/04/20 12:06:18;;;;;;;6.80;2.43;;;;;;;;;;5034771;28;20989;-71
2021/04/20 12:08:48;;;;;;;5.50;2.87;;;;;;;;;;5034942;28;20524;-71
2021/04/20 12:11:17;;;;;;;5.50;3.13;;;;;;;;;;5033583;28;20528;-71
2021/04/20 12:13:49;;;;;;;4.17;2.40;;;;;;;;;;5034250;28;20546;-70
2021/04/20 12:16:21;;;;;;;4.37;2.37;;;;;;;;;;5025023;28;20475;-70
2021/04/20 12:18:49;;;;;;;6.53;2.50;;;;;;;;;;5014853;28;20907;-71
2021/04/20 12:21:26;;;;;;;5.43;2.50;;;;;;;;;;5031364;28;20521;-72
2021/04/20 12:24:04;;;;;;;6.60;2.70;;;;;;;;;;5034449;28;20704;-71
2021/04/20 12:26:33;;;;;;;5.53;2.57;;;;;;;;;;5034511;28;20514;-70
2021/04/20 12:29:04;;;;;;;4.80;2.27;;;;;;;;;;5035166;28;20756;-70
2021/04/20 12:31:32;;;;;;;4.23;2.17;;;;;;;;;;5035097;28;20498;-70
2021/04/20 12:33:59;;;;;;;5.00;2.20;;;;;;;;;;5035382;28;20905;-70
2021/04/20 12:36:30;;;;;;;6.07;3.60;;;;;;;;;;5033810;28;20553;-72
2021/04/20 12:38:58;;;;;;;5.17;3.00;;;;;;;;;;5035616;28;20451;-72
2021/04/20 12:41:28;;;;;;;5.67;2.63;;;;;;;;;;5035652;28;20564;-71
2021/04/20 12:44:07;;;;;;;7.40;2.83;;;;;;;;;;5035218;28;20457;-72
2021/04/20 12:46:35;;;;;;;6.33;2.57;;;;;;;;;;5034357;28;20518;-71
2021/04/20 12:49:04;;;;;;;3.87;2.20;;;;;;;;;;5032863;28;20820;-71
2021/04/20 12:51:34;;;;;;;5.70;2.97;;;;;;;;;;5034109;28;20458;-72
2021/04/20 12:54:03;;;;;;;4.10;2.07;;;;;;;;;;5034138;28;20463;-71
2021/04/20 12:56:31;;;;;;;4.97;2.60;;;;;;;;;;5034115;28;20462;-72
2021/04/20 12:59:01;;;;;;;7.53;3.00;;;;;;;;;;5033717;28;20834;-70
2021/04/20 13:01:29;;;;;;;4.40;2.10;;;;;;;;;;5034555;28;20493;-71
2021/04/20 13:03:58;;;;;;;4.03;2.60;;;;;;;;;;5033099;28;20457;-71
2021/04/20 13:06:26;;;;;;;5.00;2.97;;;;;;;;;;5028467;28;20527;-71
2021/04/20 13:08:55;;;;;;;5.00;3.03;;;;;;;;;;5019530;28;20462;-71
2021/04/20 13:11:27;;;;;;;6.90;2.60;;;;;;;;;;5017192;28;20513;-70
2021/04/20 13:13:58;;;;;;;6.10;3.23;;;;;;;;;;5018423;28;20543;-72
2021/04/20 13:16:29;;;;;;;4.43;2.10;;;;;;;;;;5016510;28;20745;-72
2021/04/20 13:19:01;;;;;;;4.70;2.67;;;;;;;;;;5016638;28;20452;-72
2021/04/20 13:21:31;;;;;;;5.97;2.77;;;;;;;;;;5018755;28;20466;-71
2021/04/20 13:24:05;;;;;;;4.33;2.60;;;;;;;;;;5021483;28;20443;-71
2021/04/20 13:26:36;;;;;;;4.80;2.60;;;;;;;;;;5037209;28;20510;-71
2021/04/20 13:29:09;;;;;;;5.13;2.50;;;;;;;;;;5036933;28;20451;-71
2021/04/20 13:31:39;;;;;;;4.07;2.70;;;;;;;;;;5016002;28;20494;-71
2021/04/20 13:34:08;;;;;;;5.77;2.77;;;;;;;;;;5017678;28;20543;-71
2021/04/20 13:36:37;;;;;;;6.97;3.53;;;;;;;;;;5015199;28;20483;-71
2021/04/20 13:39:07;;;;;;;6.30;3.00;;;;;;;;;;5014532;28;20554;-72
2021/04/20 13:41:37;;;;;;;4.90;2.87;;;;;;;;;;5016853;28;20459;-71
2021/04/20 13:44:05;;;;;;;6.80;3.33;;;;;;;;;;5014985;28;20455;-71
2021/04/20 13:46:34;;;;;;;5.23;3.00;;;;;;;;;;5015942;28;20484;-71
2021/04/20 13:49:08;;;;;;;5.07;2.83;;;;;;;;;;5031108;28;20521;-71
2021/04/20 13:51:42;;;;;;;4.70;2.50;;;;;;;;;;5029701;28;20875;-71
2021/04/20 13:54:17;;;;;;;4.37;2.30;;;;;;;;;;5035964;28;20462;-72
2021/04/20 13:56:46;;;;;;;7.23;3.20;;;;;;;;;;5034131;28;20458;-71
2021/04/20 13:59:16;;;;;;;4.30;2.60;;;;;;;;;;5032620;28;20476;-71
2021/04/20 14:01:46;;;;;;;5.33;2.60;;;;;;;;;;5030705;28;20860;-71
2021/04/20 14:04:22;;;;;;;3.90;2.60;;;;;;;;;;5035685;28;20459;-71
2021/04/20 14:10:06;;;;;;;5.27;2.27;;;;;;;;;;5033514;28;20441;-70
2021/04/20 14:12:36;;;;;;;4.40;2.40;;;;;;;;;;5036368;28;20509;-70
2021/04/20 14:15:07;;;;;;;5.97;3.27;;;;;;;;;;5035405;28;20486;-70
2021/04/20 14:17:36;;;;;;;6.20;2.43;;;;;;;;;;5034591;28;20744;-71
2021/04/20 14:20:07;;;;;;;8.10;3.00;;;;;;;;;;5034715;28;20459;-70
2021/04/20 14:22:56;;;;;;;6.90;2.87;;;;;;;;;;5035149;28;20455;-72
2021/04/20 14:25:28;;;;;;;5.73;2.33;;;;;;;;;;5034568;28;20469;-72
2021/04/20 14:27:58;;;;;;;5.03;2.50;;;;;;;;;;5035094;28;20443;-71
2021/04/20 14:30:27;;;;;;;5.83;2.40;;;;;;;;;;5035469;28;20467;-70
2021/04/20 14:33:01;;;;;;;6.23;2.20;;;;;;;;;;5035702;28;20442;-71
2021/04/20 14:35:34;;;;;;;6.07;2.33;;;;;;;;;;5034312;28;20545;-72
2021/04/20 14:38:17;;;;;;;5.67;2.53;;;;;;;;;;5034658;28;20541;-72
2021/04/20 14:40:52;;;;;;;6.90;3.00;;;;;;;;;;5034986;28;20958;-72
2021/04/20 14:43:24;;;;;;;4.70;2.20;;;;;;;;;;5034137;28;20508;-72
2021/04/20 14:45:54;;;;;;;6.77;2.37;;;;;;;;;;5023970;28;20995;-71
2021/04/20 14:48:30;;;;;;;4.33;2.70;;;;;;;;;;5021426;28;20487;-72
2021/04/20 14:51:00;;;;;;;9.47;2.60;;;;;;;;;;5034714;28;20468;-72
2021/04/20 14:53:31;;;;;;;5.30;2.60;;;;;;;;;;5028859;28;20462;-72
2021/04/20 14:56:05;;;;;;;5.10;2.13;;;;;;;;;;5035363;28;20455;-72
2021/04/20 14:58:35;;;;;;;3.53;1.93;;;;;;;;;;5034317;28;20458;-72
2021/04/20 15:01:05;;;;;;;5.23;2.30;;;;;;;;;;5035180;28;20455;-72
2021/04/20 15:03:35;;;;;;;4.63;2.37;;;;;;;;;;5033036;28;20915;-71
2021/04/20 15:06:19;;;;;;;4.13;2.33;;;;;;;;;;5033636;28;20483;-72
2021/04/20 15:08:52;;;;;;;3.97;2.63;;;;;;;;;;5033353;28;20462;-72
2021/04/20 15:11:24;;;;;;;4.80;2.20;;;;;;;;;;5031688;28;20451;-72